sensor_id;sensor_type;location;lat;lon;timestamp;pressure;altitude;pressure_sealevel;temperature;humidity
26531;BME280;14201;43.188;24.160;2023-05-19T00:02:14;99828.59;;;13.92;93.68
26531;BME280;14201;43.188;24.160;2023-05-19T00:04:40;99822.47;;;13.91;93.26
26531;BME280;14201;43.188;24.160;2023-05-19T00:07:09;99824.56;;;14.02;92.52
26531;BME280;14201;43.188;24.160;2023-05-19T00:09:36;99825.25;;;13.96;92.88
26531;BME280;14201;43.188;24.160;2023-05-19T00:12:02;99826.00;;;13.93;93.14
26531;BME280;14201;43.188;24.160;2023-05-19T00:14:28;99830.63;;;14.01;92.10
26531;BME280;14201;43.188;24.160;2023-05-19T00:16:54;99830.56;;;13.99;92.24
26531;BME280;14201;43.188;24.160;2023-05-19T00:19:23;99832.50;;;14.05;92.28
26531;BME280;14201;43.188;24.160;2023-05-19T00:21:49;99834.22;;;14.04;91.82
26531;BME280;14201;43.188;24.160;2023-05-19T00:24:15;99821.03;;;14.01;92.46
26531;BME280;14201;43.188;24.160;2023-05-19T00:26:40;99827.88;;;13.97;93.14
26531;BME280;14201;43.188;24.160;2023-05-19T00:29:06;99822.63;;;13.96;93.15
26531;BME280;14201;43.188;24.160;2023-05-19T00:31:31;99825.03;;;13.90;93.45
26531;BME280;14201;43.188;24.160;2023-05-19T00:33:58;99823.63;;;14.01;92.61
26531;BME280;14201;43.188;24.160;2023-05-19T00:36:24;99823.75;;;14.04;91.89
26531;BME280;14201;43.188;24.160;2023-05-19T00:38:50;99825.72;;;14.11;90.94
26531;BME280;14201;43.188;24.160;2023-05-19T00:41:16;99822.53;;;14.22;90.77
26531;BME280;14201;43.188;24.160;2023-05-19T00:43:42;99818.13;;;14.21;90.49
26531;BME280;14201;43.188;24.160;2023-05-19T00:46:07;99823.28;;;14.17;89.74
26531;BME280;14201;43.188;24.160;2023-05-19T00:48:35;99818.41;;;14.01;89.83
26531;BME280;14201;43.188;24.160;2023-05-19T00:51:02;99818.91;;;13.89;89.01
26531;BME280;14201;43.188;24.160;2023-05-19T00:53:31;99827.44;;;13.84;90.26
26531;BME280;14201;43.188;24.160;2023-05-19T00:55:58;99818.03;;;13.89;89.66
26531;BME280;14201;43.188;24.160;2023-05-19T00:58:26;99815.97;;;13.78;90.21
26531;BME280;14201;43.188;24.160;2023-05-19T01:00:58;99829.94;;;13.79;90.24
26531;BME280;14201;43.188;24.160;2023-05-19T01:03:33;99830.13;;;13.85;89.84
26531;BME280;14201;43.188;24.160;2023-05-19T01:05:59;99825.44;;;13.75;90.08
26531;BME280;14201;43.188;24.160;2023-05-19T01:08:33;99832.06;;;13.64;90.15
26531;BME280;14201;43.188;24.160;2023-05-19T01:10:59;99832.72;;;13.58;90.39
26531;BME280;14201;43.188;24.160;2023-05-19T01:13:27;99835.22;;;13.55;90.75
26531;BME280;14201;43.188;24.160;2023-05-19T01:16:46;99822.31;;;13.59;91.29
26531;BME280;14201;43.188;24.160;2023-05-19T01:27:08;99834.00;;;13.44;88.39
26531;BME280;14201;43.188;24.160;2023-05-19T01:29:49;99831.97;;;13.35;89.17
26531;BME280;14201;43.188;24.160;2023-05-19T01:32:24;99836.38;;;13.36;89.25
26531;BME280;14201;43.188;24.160;2023-05-19T01:34:49;99844.88;;;13.30;88.64
26531;BME280;14201;43.188;24.160;2023-05-19T01:37:16;99843.66;;;13.20;89.19
26531;BME280;14201;43.188;24.160;2023-05-19T01:39:43;99839.31;;;13.21;89.58
26531;BME280;14201;43.188;24.160;2023-05-19T01:42:09;99844.47;;;13.19;89.05
26531;BME280;14201;43.188;24.160;2023-05-19T01:44:36;99840.13;;;13.20;88.81
26531;BME280;14201;43.188;24.160;2023-05-19T01:47:02;99832.13;;;13.15;89.01
26531;BME280;14201;43.188;24.160;2023-05-19T01:49:28;99834.81;;;13.17;89.60
26531;BME280;14201;43.188;24.160;2023-05-19T01:51:55;99840.91;;;13.17;90.21
26531;BME280;14201;43.188;24.160;2023-05-19T01:54:20;99831.84;;;13.08;88.75
26531;BME280;14201;43.188;24.160;2023-05-19T01:57:03;99829.72;;;12.72;87.88
26531;BME280;14201;43.188;24.160;2023-05-19T01:59:36;99838.38;;;12.71;87.79
26531;BME280;14201;43.188;24.160;2023-05-19T02:02:25;99829.59;;;12.69;88.43
26531;BME280;14201;43.188;24.160;2023-05-19T02:05:00;99844.63;;;12.74;88.74
26531;BME280;14201;43.188;24.160;2023-05-19T02:07:40;99836.56;;;12.68;89.64
26531;BME280;14201;43.188;24.160;2023-05-19T02:10:20;99845.56;;;12.76;90.24
26531;BME280;14201;43.188;24.160;2023-05-19T02:12:50;99839.16;;;12.68;90.54
26531;BME280;14201;43.188;24.160;2023-05-19T02:15:21;99860.38;;;12.77;90.50
26531;BME280;14201;43.188;24.160;2023-05-19T02:17:49;99856.50;;;12.66;90.04
26531;BME280;14201;43.188;24.160;2023-05-19T02:20:19;99854.84;;;12.68;90.34
26531;BME280;14201;43.188;24.160;2023-05-19T02:22:46;99862.69;;;12.68;90.26
26531;BME280;14201;43.188;24.160;2023-05-19T02:25:12;99865.22;;;12.67;90.40
26531;BME280;14201;43.188;24.160;2023-05-19T02:27:38;99867.63;;;12.60;89.53
26531;BME280;14201;43.188;24.160;2023-05-19T02:30:05;99864.06;;;12.58;88.31
26531;BME280;14201;43.188;24.160;2023-05-19T02:32:31;99871.72;;;12.54;86.43
26531;BME280;14201;43.188;24.160;2023-05-19T02:34:57;99872.63;;;12.54;86.44
26531;BME280;14201;43.188;24.160;2023-05-19T02:37:22;99873.16;;;12.46;86.01
26531;BME280;14201;43.188;24.160;2023-05-19T02:39:49;99884.38;;;12.43;87.64
26531;BME280;14201;43.188;24.160;2023-05-19T02:42:15;99883.19;;;12.35;89.47
26531;BME280;14201;43.188;24.160;2023-05-19T02:44:42;99877.06;;;12.12;89.80
26531;BME280;14201;43.188;24.160;2023-05-19T02:47:08;99875.97;;;12.07;91.08
26531;BME280;14201;43.188;24.160;2023-05-19T02:49:33;99888.31;;;12.11;90.71
26531;BME280;14201;43.188;24.160;2023-05-19T02:52:04;99890.06;;;12.10;91.10
26531;BME280;14201;43.188;24.160;2023-05-19T02:54:30;99897.03;;;12.11;90.48
26531;BME280;14201;43.188;24.160;2023-05-19T02:56:56;99899.47;;;12.07;90.41
26531;BME280;14201;43.188;24.160;2023-05-19T02:59:22;99899.53;;;12.08;90.09
26531;BME280;14201;43.188;24.160;2023-05-19T03:01:49;99908.91;;;12.03;90.56
26531;BME280;14201;43.188;24.160;2023-05-19T03:04:15;99889.53;;;11.98;91.56
26531;BME280;14201;43.188;24.160;2023-05-19T03:06:44;99904.94;;;12.13;90.31
26531;BME280;14201;43.188;24.160;2023-05-19T03:09:14;99907.38;;;12.08;90.63
26531;BME280;14201;43.188;24.160;2023-05-19T03:11:39;99915.38;;;12.13;89.97
26531;BME280;14201;43.188;24.160;2023-05-19T03:14:05;99916.47;;;12.18;90.12
26531;BME280;14201;43.188;24.160;2023-05-19T03:16:30;99912.13;;;12.18;89.36
26531;BME280;14201;43.188;24.160;2023-05-19T03:18:57;99916.56;;;12.21;89.45
26531;BME280;14201;43.188;24.160;2023-05-19T03:21:22;99912.84;;;12.14;89.64
26531;BME280;14201;43.188;24.160;2023-05-19T03:23:48;99912.69;;;12.11;90.43
26531;BME280;14201;43.188;24.160;2023-05-19T03:26:13;99907.03;;;12.21;90.48
26531;BME280;14201;43.188;24.160;2023-05-19T03:28:39;99914.41;;;12.32;89.44
26531;BME280;14201;43.188;24.160;2023-05-19T03:31:04;99916.06;;;12.30;89.49
26531;BME280;14201;43.188;24.160;2023-05-19T03:33:30;99918.78;;;12.33;89.17
26531;BME280;14201;43.188;24.160;2023-05-19T03:35:56;99923.72;;;12.48;88.20
26531;BME280;14201;43.188;24.160;2023-05-19T03:38:22;99921.59;;;12.37;88.05
26531;BME280;14201;43.188;24.160;2023-05-19T03:40:47;99917.25;;;12.38;89.29
26531;BME280;14201;43.188;24.160;2023-05-19T03:43:13;99920.94;;;12.43;88.74
26531;BME280;14201;43.188;24.160;2023-05-19T03:45:40;99926.09;;;12.41;90.48
26531;BME280;14201;43.188;24.160;2023-05-19T03:48:06;99933.41;;;12.50;91.73
26531;BME280;14201;43.188;24.160;2023-05-19T03:50:32;99935.19;;;12.51;90.42
26531;BME280;14201;43.188;24.160;2023-05-19T03:52:58;99929.66;;;12.44;87.98
26531;BME280;14201;43.188;24.160;2023-05-19T03:55:24;99930.03;;;12.53;86.88
26531;BME280;14201;43.188;24.160;2023-05-19T03:57:50;99924.25;;;12.61;88.91
26531;BME280;14201;43.188;24.160;2023-05-19T04:00:17;99918.09;;;12.59;90.46
26531;BME280;14201;43.188;24.160;2023-05-19T04:02:43;99929.34;;;12.81;90.68
26531;BME280;14201;43.188;24.160;2023-05-19T04:05:09;99922.75;;;12.91;89.43
26531;BME280;14201;43.188;24.160;2023-05-19T04:07:35;99923.66;;;12.91;89.19
26531;BME280;14201;43.188;24.160;2023-05-19T04:10:05;99929.41;;;13.05;88.95
26531;BME280;14201;43.188;24.160;2023-05-19T04:12:31;99939.13;;;13.09;88.75
26531;BME280;14201;43.188;24.160;2023-05-19T04:14:57;99934.63;;;13.05;88.13
26531;BME280;14201;43.188;24.160;2023-05-19T04:17:23;99933.41;;;13.19;88.42
26531;BME280;14201;43.188;24.160;2023-05-19T04:19:53;99933.84;;;13.30;88.78
26531;BME280;14201;43.188;24.160;2023-05-19T04:22:19;99932.44;;;13.40;88.77
26531;BME280;14201;43.188;24.160;2023-05-19T04:24:45;99939.63;;;13.46;88.79
26531;BME280;14201;43.188;24.160;2023-05-19T04:27:11;99940.97;;;13.60;88.15
26531;BME280;14201;43.188;24.160;2023-05-19T04:29:37;99943.31;;;13.76;87.50
26531;BME280;14201;43.188;24.160;2023-05-19T04:32:04;99944.53;;;13.62;89.46
26531;BME280;14201;43.188;24.160;2023-05-19T04:34:35;99942.66;;;13.84;88.97
26531;BME280;14201;43.188;24.160;2023-05-19T04:37:05;99947.66;;;14.03;88.48
26531;BME280;14201;43.188;24.160;2023-05-19T04:39:31;99952.34;;;14.12;88.07
26531;BME280;14201;43.188;24.160;2023-05-19T04:41:57;99942.38;;;14.27;87.69
26531;BME280;14201;43.188;24.160;2023-05-19T04:44:22;99943.78;;;14.45;88.00
26531;BME280;14201;43.188;24.160;2023-05-19T04:46:48;99940.47;;;14.50;89.16
26531;BME280;14201;43.188;24.160;2023-05-19T04:49:14;99944.44;;;14.65;88.87
26531;BME280;14201;43.188;24.160;2023-05-19T04:51:40;99943.09;;;14.79;89.17
26531;BME280;14201;43.188;24.160;2023-05-19T04:54:06;99943.84;;;15.04;88.19
26531;BME280;14201;43.188;24.160;2023-05-19T04:56:32;99940.22;;;14.99;88.04
26531;BME280;14201;43.188;24.160;2023-05-19T04:58:58;99941.09;;;14.99;89.82
26531;BME280;14201;43.188;24.160;2023-05-19T05:01:23;99944.00;;;15.40;88.13
26531;BME280;14201;43.188;24.160;2023-05-19T05:03:51;99957.00;;;15.67;85.66
26531;BME280;14201;43.188;24.160;2023-05-19T05:06:20;99953.78;;;15.78;85.03
26531;BME280;14201;43.188;24.160;2023-05-19T05:08:49;99962.16;;;15.96;84.78
26531;BME280;14201;43.188;24.160;2023-05-19T05:11:15;99962.56;;;16.11;85.76
26531;BME280;14201;43.188;24.160;2023-05-19T05:13:41;99954.06;;;16.23;86.41
26531;BME280;14201;43.188;24.160;2023-05-19T05:16:08;99945.91;;;16.49;87.28
26531;BME280;14201;43.188;24.160;2023-05-19T05:18:34;99960.44;;;16.69;85.26
26531;BME280;14201;43.188;24.160;2023-05-19T05:21:01;99961.97;;;16.99;83.22
26531;BME280;14201;43.188;24.160;2023-05-19T05:23:27;99964.38;;;17.29;81.65
26531;BME280;14201;43.188;24.160;2023-05-19T05:25:53;99955.22;;;17.55;80.02
26531;BME280;14201;43.188;24.160;2023-05-19T05:28:19;99957.94;;;17.59;81.00
26531;BME280;14201;43.188;24.160;2023-05-19T05:30:44;99959.47;;;17.48;81.39
26531;BME280;14201;43.188;24.160;2023-05-19T05:33:10;99961.25;;;17.49;81.41
26531;BME280;14201;43.188;24.160;2023-05-19T05:35:36;99959.78;;;17.65;80.68
26531;BME280;14201;43.188;24.160;2023-05-19T05:38:02;99961.00;;;17.82;80.86
26531;BME280;14201;43.188;24.160;2023-05-19T05:40:28;99958.41;;;17.84;82.90
26531;BME280;14201;43.188;24.160;2023-05-19T05:42:55;99971.88;;;17.99;79.57
26531;BME280;14201;43.188;24.160;2023-05-19T05:45:24;99971.38;;;17.75;77.67
26531;BME280;14201;43.188;24.160;2023-05-19T05:47:50;99968.97;;;17.84;79.96
26531;BME280;14201;43.188;24.160;2023-05-19T05:50:16;99973.03;;;18.15;78.86
26531;BME280;14201;43.188;24.160;2023-05-19T05:52:47;99974.88;;;18.21;80.53
26531;BME280;14201;43.188;24.160;2023-05-19T05:55:14;99977.31;;;18.10;77.20
26531;BME280;14201;43.188;24.160;2023-05-19T05:57:41;99970.13;;;18.55;80.51
26531;BME280;14201;43.188;24.160;2023-05-19T06:00:07;99973.25;;;18.85;77.76
26531;BME280;14201;43.188;24.160;2023-05-19T06:02:45;99974.72;;;18.68;78.13
26531;BME280;14201;43.188;24.160;2023-05-19T06:05:11;99982.16;;;18.94;77.80
26531;BME280;14201;43.188;24.160;2023-05-19T06:07:39;99976.06;;;18.96;76.01
26531;BME280;14201;43.188;24.160;2023-05-19T06:10:05;99973.72;;;19.19;77.15
26531;BME280;14201;43.188;24.160;2023-05-19T06:12:32;99983.38;;;19.19;75.96
26531;BME280;14201;43.188;24.160;2023-05-19T06:14:58;99984.41;;;19.32;75.02
26531;BME280;14201;43.188;24.160;2023-05-19T06:17:24;99980.81;;;19.25;73.04
26531;BME280;14201;43.188;24.160;2023-05-19T06:19:50;99980.91;;;19.33;73.34
26531;BME280;14201;43.188;24.160;2023-05-19T06:22:15;99982.19;;;19.68;71.88
26531;BME280;14201;43.188;24.160;2023-05-19T06:24:41;99988.47;;;19.77;75.93
26531;BME280;14201;43.188;24.160;2023-05-19T06:27:06;99982.59;;;20.05;72.77
26531;BME280;14201;43.188;24.160;2023-05-19T06:29:32;99982.00;;;20.40;73.20
26531;BME280;14201;43.188;24.160;2023-05-19T06:31:58;99984.66;;;20.40;69.37
26531;BME280;14201;43.188;24.160;2023-05-19T06:34:24;99989.28;;;20.63;72.20
26531;BME280;14201;43.188;24.160;2023-05-19T06:36:49;99995.72;;;21.08;71.29
26531;BME280;14201;43.188;24.160;2023-05-19T06:39:15;99991.53;;;21.50;63.57
26531;BME280;14201;43.188;24.160;2023-05-19T06:41:41;99996.03;;;21.70;67.47
26531;BME280;14201;43.188;24.160;2023-05-19T06:44:06;100002.19;;;21.69;63.99
26531;BME280;14201;43.188;24.160;2023-05-19T06:46:33;99999.59;;;21.99;66.31
26531;BME280;14201;43.188;24.160;2023-05-19T06:48:59;99993.47;;;22.33;66.09
26531;BME280;14201;43.188;24.160;2023-05-19T06:51:25;99999.66;;;22.69;65.59
26531;BME280;14201;43.188;24.160;2023-05-19T06:53:51;99999.63;;;22.90;63.89
26531;BME280;14201;43.188;24.160;2023-05-19T06:56:16;99996.06;;;23.13;62.93
26531;BME280;14201;43.188;24.160;2023-05-19T06:58:44;99995.22;;;22.45;61.08
26531;BME280;14201;43.188;24.160;2023-05-19T07:01:09;100007.59;;;22.10;61.76
26531;BME280;14201;43.188;24.160;2023-05-19T07:03:36;100006.75;;;22.27;62.65
26531;BME280;14201;43.188;24.160;2023-05-19T07:06:02;100002.31;;;22.30;63.04
26531;BME280;14201;43.188;24.160;2023-05-19T07:08:27;99996.13;;;22.68;63.26
26531;BME280;14201;43.188;24.160;2023-05-19T07:10:53;99984.56;;;23.03;61.24
26531;BME280;14201;43.188;24.160;2023-05-19T07:13:20;99988.09;;;23.10;60.64
26531;BME280;14201;43.188;24.160;2023-05-19T07:15:46;99992.47;;;23.22;61.87
26531;BME280;14201;43.188;24.160;2023-05-19T07:18:13;99992.38;;;23.45;56.46
26531;BME280;14201;43.188;24.160;2023-05-19T07:20:39;99995.78;;;23.68;55.23
26531;BME280;14201;43.188;24.160;2023-05-19T07:23:04;99996.63;;;23.76;56.19
26531;BME280;14201;43.188;24.160;2023-05-19T07:25:30;99984.13;;;23.94;60.50
26531;BME280;14201;43.188;24.160;2023-05-19T07:27:56;99980.38;;;24.21;58.51
26531;BME280;14201;43.188;24.160;2023-05-19T07:30:21;99982.84;;;24.49;56.12
26531;BME280;14201;43.188;24.160;2023-05-19T07:32:47;99984.41;;;24.71;56.39
26531;BME280;14201;43.188;24.160;2023-05-19T07:35:13;99978.91;;;24.88;55.80
26531;BME280;14201;43.188;24.160;2023-05-19T07:37:38;99982.53;;;24.81;51.21
26531;BME280;14201;43.188;24.160;2023-05-19T07:40:04;99979.69;;;24.98;54.00
26531;BME280;14201;43.188;24.160;2023-05-19T07:42:33;99977.81;;;25.06;51.04
26531;BME280;14201;43.188;24.160;2023-05-19T07:44:59;99989.25;;;25.16;55.21
26531;BME280;14201;43.188;24.160;2023-05-19T07:47:25;99980.97;;;25.42;55.98
26531;BME280;14201;43.188;24.160;2023-05-19T07:49:51;99978.03;;;25.62;54.88
26531;BME280;14201;43.188;24.160;2023-05-19T07:52:16;99974.09;;;25.91;55.34
26531;BME280;14201;43.188;24.160;2023-05-19T07:54:43;99977.31;;;26.13;50.15
26531;BME280;14201;43.188;24.160;2023-05-19T07:57:09;99985.41;;;26.07;54.89
26531;BME280;14201;43.188;24.160;2023-05-19T07:59:35;99978.75;;;26.34;48.52
26531;BME280;14201;43.188;24.160;2023-05-19T08:02:00;99984.06;;;26.36;50.66
26531;BME280;14201;43.188;24.160;2023-05-19T08:04:26;99983.72;;;26.56;53.70
26531;BME280;14201;43.188;24.160;2023-05-19T08:06:52;99982.44;;;26.80;47.71
26531;BME280;14201;43.188;24.160;2023-05-19T08:09:17;99983.81;;;27.01;47.64
26531;BME280;14201;43.188;24.160;2023-05-19T08:11:43;99982.59;;;27.16;50.08
26531;BME280;14201;43.188;24.160;2023-05-19T08:14:08;99980.75;;;27.19;52.15
26531;BME280;14201;43.188;24.160;2023-05-19T08:16:34;99981.88;;;27.53;54.34
26531;BME280;14201;43.188;24.160;2023-05-19T08:19:00;99986.06;;;27.64;47.55
26531;BME280;14201;43.188;24.160;2023-05-19T08:21:28;99986.91;;;27.26;47.15
26531;BME280;14201;43.188;24.160;2023-05-19T08:23:54;99982.00;;;27.01;45.89
26531;BME280;14201;43.188;24.160;2023-05-19T08:26:21;99994.28;;;27.11;49.15
26531;BME280;14201;43.188;24.160;2023-05-19T08:28:46;99990.28;;;27.36;52.15
26531;BME280;14201;43.188;24.160;2023-05-19T08:31:12;99980.84;;;27.58;50.54
26531;BME280;14201;43.188;24.160;2023-05-19T08:33:37;99991.78;;;27.89;51.46
26531;BME280;14201;43.188;24.160;2023-05-19T08:36:03;99991.19;;;27.75;52.21
26531;BME280;14201;43.188;24.160;2023-05-19T08:38:28;99987.50;;;27.40;48.89
26531;BME280;14201;43.188;24.160;2023-05-19T08:40:54;99988.34;;;27.42;49.48
26531;BME280;14201;43.188;24.160;2023-05-19T08:43:19;99981.59;;;27.21;47.80
26531;BME280;14201;43.188;24.160;2023-05-19T08:45:45;99981.00;;;27.07;45.54
26531;BME280;14201;43.188;24.160;2023-05-19T08:48:12;99984.19;;;26.79;45.86
26531;BME280;14201;43.188;24.160;2023-05-19T08:50:38;99984.91;;;26.38;47.27
26531;BME280;14201;43.188;24.160;2023-05-19T08:53:09;99977.59;;;26.49;53.95
26531;BME280;14201;43.188;24.160;2023-05-19T08:55:54;99977.84;;;26.85;49.05
26531;BME280;14201;43.188;24.160;2023-05-19T08:58:23;99983.72;;;27.05;53.70
26531;BME280;14201;43.188;24.160;2023-05-19T09:00:48;99976.34;;;27.18;50.01
26531;BME280;14201;43.188;24.160;2023-05-19T09:03:15;99980.19;;;27.48;52.76
26531;BME280;14201;43.188;24.160;2023-05-19T09:05:42;99982.88;;;27.87;51.72
26531;BME280;14201;43.188;24.160;2023-05-19T09:08:08;99972.81;;;27.99;48.21
26531;BME280;14201;43.188;24.160;2023-05-19T09:10:33;99978.38;;;27.49;51.74
26531;BME280;14201;43.188;24.160;2023-05-19T09:12:59;99979.94;;;28.00;48.63
26531;BME280;14201;43.188;24.160;2023-05-19T09:15:25;99977.19;;;28.03;47.22
26531;BME280;14201;43.188;24.160;2023-05-19T09:17:50;99974.44;;;28.06;45.64
26531;BME280;14201;43.188;24.160;2023-05-19T09:20:29;99976.06;;;28.47;48.22
26531;BME280;14201;43.188;24.160;2023-05-19T09:22:54;99971.47;;;28.54;49.08
26531;BME280;14201;43.188;24.160;2023-05-19T09:25:22;99976.16;;;28.79;44.10
26531;BME280;14201;43.188;24.160;2023-05-19T09:27:48;99966.13;;;28.54;45.18
26531;BME280;14201;43.188;24.160;2023-05-19T09:30:16;99978.00;;;28.77;43.66
26531;BME280;14201;43.188;24.160;2023-05-19T09:32:42;99969.72;;;28.86;45.49
26531;BME280;14201;43.188;24.160;2023-05-19T09:35:08;99976.91;;;29.18;48.62
26531;BME280;14201;43.188;24.160;2023-05-19T09:37:33;99970.09;;;29.36;46.11
26531;BME280;14201;43.188;24.160;2023-05-19T09:39:59;99977.88;;;29.45;47.01
26531;BME280;14201;43.188;24.160;2023-05-19T09:42:27;99974.53;;;29.67;46.17
26531;BME280;14201;43.188;24.160;2023-05-19T09:45:00;99970.59;;;29.80;44.80
26531;BME280;14201;43.188;24.160;2023-05-19T09:47:26;99974.47;;;29.98;45.42
26531;BME280;14201;43.188;24.160;2023-05-19T09:49:53;99974.16;;;30.09;44.03
26531;BME280;14201;43.188;24.160;2023-05-19T09:52:18;99968.94;;;30.03;43.00
26531;BME280;14201;43.188;24.160;2023-05-19T09:54:45;99970.91;;;29.98;44.17
26531;BME280;14201;43.188;24.160;2023-05-19T09:57:11;99961.25;;;29.01;40.38
26531;BME280;14201;43.188;24.160;2023-05-19T09:59:37;99961.47;;;28.61;43.05
26531;BME280;14201;43.188;24.160;2023-05-19T10:02:03;99955.94;;;28.98;46.51
26531;BME280;14201;43.188;24.160;2023-05-19T10:04:28;99957.91;;;28.93;47.36
26531;BME280;14201;43.188;24.160;2023-05-19T10:06:56;99963.56;;;29.15;42.39
26531;BME280;14201;43.188;24.160;2023-05-19T10:09:29;99957.91;;;29.26;44.61
26531;BME280;14201;43.188;24.160;2023-05-19T10:11:55;99954.25;;;28.96;40.72
26531;BME280;14201;43.188;24.160;2023-05-19T10:14:21;99952.13;;;28.76;45.57
26531;BME280;14201;43.188;24.160;2023-05-19T10:16:53;99951.34;;;29.03;45.27
26531;BME280;14201;43.188;24.160;2023-05-19T10:19:19;99947.56;;;29.12;43.22
26531;BME280;14201;43.188;24.160;2023-05-19T10:21:45;99942.06;;;28.84;41.28
26531;BME280;14201;43.188;24.160;2023-05-19T10:24:10;99941.06;;;28.19;40.28
26531;BME280;14201;43.188;24.160;2023-05-19T10:26:37;99944.81;;;27.34;43.25
26531;BME280;14201;43.188;24.160;2023-05-19T10:29:04;99937.84;;;27.66;42.57
26531;BME280;14201;43.188;24.160;2023-05-19T10:31:30;99924.56;;;28.02;42.90
26531;BME280;14201;43.188;24.160;2023-05-19T10:37:04;99930.56;;;28.79;47.50
26531;BME280;14201;43.188;24.160;2023-05-19T10:39:34;99938.53;;;29.15;47.05
26531;BME280;14201;43.188;24.160;2023-05-19T10:42:32;99940.66;;;29.33;43.88
26531;BME280;14201;43.188;24.160;2023-05-19T10:45:17;99930.06;;;28.30;43.59
26531;BME280;14201;43.188;24.160;2023-05-19T10:47:44;99934.94;;;28.14;48.24
26531;BME280;14201;43.188;24.160;2023-05-19T10:50:10;99937.00;;;28.39;48.97
26531;BME280;14201;43.188;24.160;2023-05-19T10:52:37;99946.19;;;28.64;45.32
26531;BME280;14201;43.188;24.160;2023-05-19T10:55:06;99935.00;;;28.81;44.17
26531;BME280;14201;43.188;24.160;2023-05-19T10:57:33;99937.72;;;28.80;43.78
26531;BME280;14201;43.188;24.160;2023-05-19T11:00:05;99941.81;;;28.93;44.88
26531;BME280;14201;43.188;24.160;2023-05-19T11:02:49;99936.09;;;29.05;43.93
26531;BME280;14201;43.188;24.160;2023-05-19T11:05:27;99924.75;;;29.27;42.76
26531;BME280;14201;43.188;24.160;2023-05-19T11:08:04;99925.31;;;29.38;41.65
26531;BME280;14201;43.188;24.160;2023-05-19T11:10:30;99920.53;;;29.48;41.56
26531;BME280;14201;43.188;24.160;2023-05-19T11:12:56;99921.88;;;29.63;43.51
26531;BME280;14201;43.188;24.160;2023-05-19T11:15:26;99924.13;;;29.77;42.67
26531;BME280;14201;43.188;24.160;2023-05-19T11:17:52;99917.19;;;29.98;39.32
26531;BME280;14201;43.188;24.160;2023-05-19T11:20:27;99916.44;;;29.93;42.76
26531;BME280;14201;43.188;24.160;2023-05-19T11:23:11;99907.00;;;30.08;44.53
26531;BME280;14201;43.188;24.160;2023-05-19T11:25:43;99918.00;;;30.00;43.62
26531;BME280;14201;43.188;24.160;2023-05-19T11:28:10;99911.97;;;30.20;41.34
26531;BME280;14201;43.188;24.160;2023-05-19T11:30:43;99908.69;;;30.38;38.47
26531;BME280;14201;43.188;24.160;2023-05-19T11:33:09;99896.09;;;30.39;41.65
26531;BME280;14201;43.188;24.160;2023-05-19T11:35:35;99904.44;;;30.56;40.14
26531;BME280;14201;43.188;24.160;2023-05-19T11:38:01;99905.03;;;30.65;40.13
26531;BME280;14201;43.188;24.160;2023-05-19T11:40:27;99903.34;;;30.62;39.83
26531;BME280;14201;43.188;24.160;2023-05-19T11:42:52;99893.78;;;30.78;39.37
26531;BME280;14201;43.188;24.160;2023-05-19T11:45:23;99899.38;;;30.97;39.22
26531;BME280;14201;43.188;24.160;2023-05-19T11:47:48;99891.97;;;30.29;34.45
26531;BME280;14201;43.188;24.160;2023-05-19T11:50:14;99889.38;;;30.26;38.71
26531;BME280;14201;43.188;24.160;2023-05-19T11:52:43;99894.19;;;30.16;38.04
26531;BME280;14201;43.188;24.160;2023-05-19T11:55:13;99892.41;;;29.60;37.80
26531;BME280;14201;43.188;24.160;2023-05-19T11:57:39;99883.81;;;29.78;38.22
26531;BME280;14201;43.188;24.160;2023-05-19T12:00:06;99882.69;;;30.11;38.03
26531;BME280;14201;43.188;24.160;2023-05-19T12:02:32;99877.22;;;28.70;37.64
26531;BME280;14201;43.188;24.160;2023-05-19T12:04:57;99879.44;;;27.83;38.72
26531;BME280;14201;43.188;24.160;2023-05-19T12:07:23;99873.28;;;28.16;38.78
26531;BME280;14201;43.188;24.160;2023-05-19T12:09:50;99875.78;;;28.23;38.19
26531;BME280;14201;43.188;24.160;2023-05-19T12:12:16;99863.91;;;28.32;39.28
26531;BME280;14201;43.188;24.160;2023-05-19T12:14:43;99864.13;;;28.59;38.72
26531;BME280;14201;43.188;24.160;2023-05-19T12:17:09;99864.28;;;28.53;37.07
26531;BME280;14201;43.188;24.160;2023-05-19T12:19:35;99861.44;;;28.24;40.38
26531;BME280;14201;43.188;24.160;2023-05-19T12:22:01;99858.66;;;27.95;40.88
26531;BME280;14201;43.188;24.160;2023-05-19T12:24:27;99857.22;;;28.16;40.54
26531;BME280;14201;43.188;24.160;2023-05-19T12:27:03;99844.72;;;28.15;39.67
26531;BME280;14201;43.188;24.160;2023-05-19T12:29:30;99848.84;;;28.28;38.86
26531;BME280;14201;43.188;24.160;2023-05-19T12:31:55;99845.09;;;28.35;39.94
26531;BME280;14201;43.188;24.160;2023-05-19T12:34:21;99854.13;;;28.65;42.24
26531;BME280;14201;43.188;24.160;2023-05-19T12:36:47;99848.75;;;28.95;38.14
26531;BME280;14201;43.188;24.160;2023-05-19T12:39:12;99847.94;;;29.23;38.63
26531;BME280;14201;43.188;24.160;2023-05-19T12:41:38;99844.97;;;29.32;36.22
26531;BME280;14201;43.188;24.160;2023-05-19T12:44:12;99850.25;;;29.05;38.17
26531;BME280;14201;43.188;24.160;2023-05-19T12:46:38;99842.38;;;28.99;41.23
26531;BME280;14201;43.188;24.160;2023-05-19T12:49:04;99848.97;;;29.19;40.02
26531;BME280;14201;43.188;24.160;2023-05-19T12:51:29;99840.41;;;29.36;41.86
26531;BME280;14201;43.188;24.160;2023-05-19T12:53:55;99833.22;;;29.36;42.39
26531;BME280;14201;43.188;24.160;2023-05-19T12:56:20;99835.28;;;29.28;39.59
26531;BME280;14201;43.188;24.160;2023-05-19T12:58:46;99823.00;;;29.19;40.69
26531;BME280;14201;43.188;24.160;2023-05-19T13:01:15;99823.75;;;29.24;40.30
26531;BME280;14201;43.188;24.160;2023-05-19T13:03:41;99832.56;;;28.03;39.16